Portada
METAR-TAF:

METAR-TAF

Aeroports :

Yap, Micronèsia

latitud: 09-29N, longitud: 138-05E, altitud: 28 m

Observació

L'informe es va fer fa 1 hora i 5 minuts, a les 12:50 UTC
Vent 2 kt amb direcció variable
Temperatura 27°C
Humitat 84%
Pressió 1010 hPa
Visibilitat: 19.3 km
Escasses núvols a una alçada de 1700 ft
Cel ennuvolat a una alçada de 30000 ft

METAR: PTYA 201250Z VRB02KT 12SM FEW017 BKN300 27/24 A2982 RMK SLP098 T02650241

Hora: 23:55 (13:55 UTC)

Pronòstic

L'informe es va fer fa 2 hores i 35 minuts, a les 11:20 UTC
Pronòstic vàlid del 20 a les 12 UTC al 21 a les 12 UTC
Vent 5 kt amb direcció variable
Visibilitat: 10 km
Escasses núvols a una alçada de 1700 ft

TAF: PTYA 201120Z 2012/2112 VRB05KT P6SM FEW017

Observacions i pronòstics meteorològics de més de 4000 aeroports (METAR i TAF).

Les estacions disponibles són els punts grocs i vermells al mapa.

Posi el ratolí al punt desitjat per veure el nom de l'estació.

Feu clic per veure les observacions i els pronòstics meteorològics.

Per canviar el mapa: feu clic els botons verds amb una creu de color negre per apropar; al botó verd amb un guió per allunyar la imatge; o en les fletxes verdes per a mapes adjacents.


METAR-TAF: